sensor_id;sensor_type;location;lat;lon;timestamp;temperature;humidity
3360;DHT22;1693;49.602;11.046;2022-09-09T00:00:46;12.60;99.90
3360;DHT22;1693;49.602;11.046;2022-09-09T00:03:18;12.60;99.90
3360;DHT22;1693;49.602;11.046;2022-09-09T00:05:55;12.60;99.90
3360;DHT22;1693;49.602;11.046;2022-09-09T00:08:33;12.70;99.90
3360;DHT22;1693;49.602;11.046;2022-09-09T00:11:11;12.70;99.90
3360;DHT22;1693;49.602;11.046;2022-09-09T00:13:41;12.70;99.90
3360;DHT22;1693;49.602;11.046;2022-09-09T00:16:15;12.70;99.90
3360;DHT22;1693;49.602;11.046;2022-09-09T00:18:54;12.60;99.90
3360;DHT22;1693;49.602;11.046;2022-09-09T00:21:26;12.60;99.90
3360;DHT22;1693;49.602;11.046;2022-09-09T00:23:58;12.70;99.90
3360;DHT22;1693;49.602;11.046;2022-09-09T00:26:34;12.60;99.90
3360;DHT22;1693;49.602;11.046;2022-09-09T00:29:09;12.60;99.90
3360;DHT22;1693;49.602;11.046;2022-09-09T00:31:40;12.60;99.90
3360;DHT22;1693;49.602;11.046;2022-09-09T00:34:12;12.60;99.90
3360;DHT22;1693;49.602;11.046;2022-09-09T00:36:41;12.60;99.90
3360;DHT22;1693;49.602;11.046;2022-09-09T00:39:17;12.60;99.90
3360;DHT22;1693;49.602;11.046;2022-09-09T00:41:54;12.70;99.90
3360;DHT22;1693;49.602;11.046;2022-09-09T00:44:30;12.60;99.90
3360;DHT22;1693;49.602;11.046;2022-09-09T00:47:09;12.70;99.90
3360;DHT22;1693;49.602;11.046;2022-09-09T00:49:47;12.70;99.90
3360;DHT22;1693;49.602;11.046;2022-09-09T00:52:28;12.70;99.90
3360;DHT22;1693;49.602;11.046;2022-09-09T00:55:05;12.70;99.90
3360;DHT22;1693;49.602;11.046;2022-09-09T00:57:36;12.70;99.90
3360;DHT22;1693;49.602;11.046;2022-09-09T01:00:19;12.70;99.90
3360;DHT22;1693;49.602;11.046;2022-09-09T01:03:07;12.80;99.90
3360;DHT22;1693;49.602;11.046;2022-09-09T01:05:43;12.70;99.90
3360;DHT22;1693;49.602;11.046;2022-09-09T01:08:19;12.80;99.90
3360;DHT22;1693;49.602;11.046;2022-09-09T01:10:54;12.80;99.90
3360;DHT22;1693;49.602;11.046;2022-09-09T01:13:27;12.80;99.90
3360;DHT22;1693;49.602;11.046;2022-09-09T01:15:57;12.70;99.90
3360;DHT22;1693;49.602;11.046;2022-09-09T01:18:28;12.70;99.90
3360;DHT22;1693;49.602;11.046;2022-09-09T01:21:07;12.70;99.90
3360;DHT22;1693;49.602;11.046;2022-09-09T01:23:45;12.60;99.90
3360;DHT22;1693;49.602;11.046;2022-09-09T01:26:23;12.70;99.90
3360;DHT22;1693;49.602;11.046;2022-09-09T01:28:54;12.60;99.90
3360;DHT22;1693;49.602;11.046;2022-09-09T01:31:26;12.70;99.90
3360;DHT22;1693;49.602;11.046;2022-09-09T01:33:55;12.70;99.90
3360;DHT22;1693;49.602;11.046;2022-09-09T01:36:29;12.70;99.90
3360;DHT22;1693;49.602;11.046;2022-09-09T01:39:00;12.70;99.90
3360;DHT22;1693;49.602;11.046;2022-09-09T01:41:29;12.60;99.90
3360;DHT22;1693;49.602;11.046;2022-09-09T01:43:57;12.60;99.90
3360;DHT22;1693;49.602;11.046;2022-09-09T01:46:25;12.60;99.90
3360;DHT22;1693;49.602;11.046;2022-09-09T01:48:55;12.60;99.90
3360;DHT22;1693;49.602;11.046;2022-09-09T01:51:27;12.70;99.90
3360;DHT22;1693;49.602;11.046;2022-09-09T01:53:55;12.80;99.90
3360;DHT22;1693;49.602;11.046;2022-09-09T01:56:34;12.80;99.90
3360;DHT22;1693;49.602;11.046;2022-09-09T01:59:26;12.90;99.90
3360;DHT22;1693;49.602;11.046;2022-09-09T02:02:05;12.90;99.90
3360;DHT22;1693;49.602;11.046;2022-09-09T02:04:39;12.90;99.90
3360;DHT22;1693;49.602;11.046;2022-09-09T02:07:27;12.90;99.90
3360;DHT22;1693;49.602;11.046;2022-09-09T02:10:00;13.00;99.90
3360;DHT22;1693;49.602;11.046;2022-09-09T02:12:30;13.00;99.90
3360;DHT22;1693;49.602;11.046;2022-09-09T02:15:03;13.00;99.90
3360;DHT22;1693;49.602;11.046;2022-09-09T02:17:36;13.00;99.90
3360;DHT22;1693;49.602;11.046;2022-09-09T02:20:05;13.00;99.90
3360;DHT22;1693;49.602;11.046;2022-09-09T02:22:38;13.00;99.90
3360;DHT22;1693;49.602;11.046;2022-09-09T02:25:08;13.10;99.90
3360;DHT22;1693;49.602;11.046;2022-09-09T02:27:41;13.10;99.90
3360;DHT22;1693;49.602;11.046;2022-09-09T02:30:12;13.10;99.90
3360;DHT22;1693;49.602;11.046;2022-09-09T02:32:42;13.10;99.90
3360;DHT22;1693;49.602;11.046;2022-09-09T02:35:13;13.20;99.90
3360;DHT22;1693;49.602;11.046;2022-09-09T02:37:42;13.30;99.90
3360;DHT22;1693;49.602;11.046;2022-09-09T02:40:13;13.40;99.90
3360;DHT22;1693;49.602;11.046;2022-09-09T02:42:46;13.40;99.90
3360;DHT22;1693;49.602;11.046;2022-09-09T02:45:17;13.40;99.90
3360;DHT22;1693;49.602;11.046;2022-09-09T02:47:50;13.40;99.90
3360;DHT22;1693;49.602;11.046;2022-09-09T02:50:25;13.40;99.90
3360;DHT22;1693;49.602;11.046;2022-09-09T02:53:05;13.50;99.90
3360;DHT22;1693;49.602;11.046;2022-09-09T02:55:39;13.50;99.90
3360;DHT22;1693;49.602;11.046;2022-09-09T02:58:11;13.60;99.90
3360;DHT22;1693;49.602;11.046;2022-09-09T03:00:45;13.70;99.90
3360;DHT22;1693;49.602;11.046;2022-09-09T03:03:12;13.70;99.90
3360;DHT22;1693;49.602;11.046;2022-09-09T03:05:43;13.80;99.90
3360;DHT22;1693;49.602;11.046;2022-09-09T03:08:13;13.70;99.90
3360;DHT22;1693;49.602;11.046;2022-09-09T03:10:41;13.80;99.90
3360;DHT22;1693;49.602;11.046;2022-09-09T03:13:10;13.80;99.90
3360;DHT22;1693;49.602;11.046;2022-09-09T03:15:41;13.80;99.90
3360;DHT22;1693;49.602;11.046;2022-09-09T03:18:08;13.80;99.90
3360;DHT22;1693;49.602;11.046;2022-09-09T03:20:37;13.80;99.90
3360;DHT22;1693;49.602;11.046;2022-09-09T03:23:05;13.80;99.90
3360;DHT22;1693;49.602;11.046;2022-09-09T03:25:32;13.80;99.90
3360;DHT22;1693;49.602;11.046;2022-09-09T03:28:00;13.80;99.90
3360;DHT22;1693;49.602;11.046;2022-09-09T03:30:29;13.70;99.90
3360;DHT22;1693;49.602;11.046;2022-09-09T03:32:56;13.60;99.90
3360;DHT22;1693;49.602;11.046;2022-09-09T03:35:23;13.60;99.90
3360;DHT22;1693;49.602;11.046;2022-09-09T03:37:50;13.60;99.90
3360;DHT22;1693;49.602;11.046;2022-09-09T03:40:18;13.60;99.90
3360;DHT22;1693;49.602;11.046;2022-09-09T03:42:46;13.60;99.90
3360;DHT22;1693;49.602;11.046;2022-09-09T03:45:13;13.60;99.90
3360;DHT22;1693;49.602;11.046;2022-09-09T03:47:42;13.70;99.90
3360;DHT22;1693;49.602;11.046;2022-09-09T03:50:10;13.70;99.90
3360;DHT22;1693;49.602;11.046;2022-09-09T03:52:38;13.80;99.90
3360;DHT22;1693;49.602;11.046;2022-09-09T03:55:08;13.80;99.90
3360;DHT22;1693;49.602;11.046;2022-09-09T03:57:37;13.80;99.90
3360;DHT22;1693;49.602;11.046;2022-09-09T04:00:07;13.80;99.90
3360;DHT22;1693;49.602;11.046;2022-09-09T04:02:36;13.90;99.90
3360;DHT22;1693;49.602;11.046;2022-09-09T04:05:06;13.80;99.90
3360;DHT22;1693;49.602;11.046;2022-09-09T04:07:34;13.80;99.90
3360;DHT22;1693;49.602;11.046;2022-09-09T04:10:04;13.70;99.90
3360;DHT22;1693;49.602;11.046;2022-09-09T04:12:33;13.70;99.90
3360;DHT22;1693;49.602;11.046;2022-09-09T04:15:01;13.60;99.90
3360;DHT22;1693;49.602;11.046;2022-09-09T04:17:30;13.70;99.90
3360;DHT22;1693;49.602;11.046;2022-09-09T04:19:59;13.80;99.90
3360;DHT22;1693;49.602;11.046;2022-09-09T04:22:29;13.70;99.90
3360;DHT22;1693;49.602;11.046;2022-09-09T04:24:57;13.80;99.90
3360;DHT22;1693;49.602;11.046;2022-09-09T04:27:25;13.80;99.90
3360;DHT22;1693;49.602;11.046;2022-09-09T04:29:53;13.90;99.90
3360;DHT22;1693;49.602;11.046;2022-09-09T04:32:23;13.90;99.90
3360;DHT22;1693;49.602;11.046;2022-09-09T04:34:52;13.90;99.90
3360;DHT22;1693;49.602;11.046;2022-09-09T04:37:21;13.90;99.90
3360;DHT22;1693;49.602;11.046;2022-09-09T04:39:49;14.00;99.90
3360;DHT22;1693;49.602;11.046;2022-09-09T04:42:17;14.10;99.90
3360;DHT22;1693;49.602;11.046;2022-09-09T04:44:46;14.20;99.90
3360;DHT22;1693;49.602;11.046;2022-09-09T04:47:16;14.20;99.90
3360;DHT22;1693;49.602;11.046;2022-09-09T04:49:43;14.20;99.90
3360;DHT22;1693;49.602;11.046;2022-09-09T04:52:12;14.10;99.90
3360;DHT22;1693;49.602;11.046;2022-09-09T04:54:44;14.10;99.90
3360;DHT22;1693;49.602;11.046;2022-09-09T04:57:14;14.20;99.90
3360;DHT22;1693;49.602;11.046;2022-09-09T04:59:42;14.30;99.90
3360;DHT22;1693;49.602;11.046;2022-09-09T05:02:10;14.40;99.90
3360;DHT22;1693;49.602;11.046;2022-09-09T05:04:38;14.30;99.90
3360;DHT22;1693;49.602;11.046;2022-09-09T05:07:05;14.40;99.90
3360;DHT22;1693;49.602;11.046;2022-09-09T05:09:33;14.50;99.90
3360;DHT22;1693;49.602;11.046;2022-09-09T05:12:01;14.60;99.90
3360;DHT22;1693;49.602;11.046;2022-09-09T05:14:32;14.60;99.90
3360;DHT22;1693;49.602;11.046;2022-09-09T05:17:02;14.70;99.90
3360;DHT22;1693;49.602;11.046;2022-09-09T05:19:30;14.80;99.90
3360;DHT22;1693;49.602;11.046;2022-09-09T05:21:59;14.90;99.90
3360;DHT22;1693;49.602;11.046;2022-09-09T05:24:28;14.90;99.90
3360;DHT22;1693;49.602;11.046;2022-09-09T05:26:59;15.00;99.90
3360;DHT22;1693;49.602;11.046;2022-09-09T05:29:38;15.10;99.90
3360;DHT22;1693;49.602;11.046;2022-09-09T05:32:14;15.00;99.90
3360;DHT22;1693;49.602;11.046;2022-09-09T05:34:42;15.10;99.90
3360;DHT22;1693;49.602;11.046;2022-09-09T05:37:09;15.20;99.90
3360;DHT22;1693;49.602;11.046;2022-09-09T05:39:37;15.20;99.90
3360;DHT22;1693;49.602;11.046;2022-09-09T05:42:06;15.30;99.90
3360;DHT22;1693;49.602;11.046;2022-09-09T05:44:36;15.40;99.90
3360;DHT22;1693;49.602;11.046;2022-09-09T05:47:03;15.50;99.90
3360;DHT22;1693;49.602;11.046;2022-09-09T05:49:32;15.60;99.90
3360;DHT22;1693;49.602;11.046;2022-09-09T05:52:00;15.70;99.90
3360;DHT22;1693;49.602;11.046;2022-09-09T05:54:30;15.80;99.90
3360;DHT22;1693;49.602;11.046;2022-09-09T05:56:59;15.80;99.90
3360;DHT22;1693;49.602;11.046;2022-09-09T05:59:27;15.90;99.90
3360;DHT22;1693;49.602;11.046;2022-09-09T06:01:56;16.00;99.90
3360;DHT22;1693;49.602;11.046;2022-09-09T06:04:25;15.90;99.90
3360;DHT22;1693;49.602;11.046;2022-09-09T06:06:51;16.10;99.90
3360;DHT22;1693;49.602;11.046;2022-09-09T06:09:20;16.00;99.90
3360;DHT22;1693;49.602;11.046;2022-09-09T06:11:48;16.10;99.90
3360;DHT22;1693;49.602;11.046;2022-09-09T06:14:15;16.10;99.90
3360;DHT22;1693;49.602;11.046;2022-09-09T06:16:43;16.20;99.90
3360;DHT22;1693;49.602;11.046;2022-09-09T06:19:12;16.30;99.90
3360;DHT22;1693;49.602;11.046;2022-09-09T06:21:41;16.40;99.90
3360;DHT22;1693;49.602;11.046;2022-09-09T06:24:08;16.60;99.90
3360;DHT22;1693;49.602;11.046;2022-09-09T06:26:38;16.70;99.90
3360;DHT22;1693;49.602;11.046;2022-09-09T06:29:08;16.70;99.90
3360;DHT22;1693;49.602;11.046;2022-09-09T06:31:36;16.60;99.90
3360;DHT22;1693;49.602;11.046;2022-09-09T06:34:06;16.90;99.90
3360;DHT22;1693;49.602;11.046;2022-09-09T06:36:41;17.00;99.90
3360;DHT22;1693;49.602;11.046;2022-09-09T06:39:10;17.00;99.90
3360;DHT22;1693;49.602;11.046;2022-09-09T06:41:37;17.10;99.90
3360;DHT22;1693;49.602;11.046;2022-09-09T06:44:06;17.20;99.90
3360;DHT22;1693;49.602;11.046;2022-09-09T06:46:33;17.10;99.90
3360;DHT22;1693;49.602;11.046;2022-09-09T06:49:02;17.20;99.90
3360;DHT22;1693;49.602;11.046;2022-09-09T06:51:37;17.40;99.90
3360;DHT22;1693;49.602;11.046;2022-09-09T06:54:09;17.60;99.90
3360;DHT22;1693;49.602;11.046;2022-09-09T06:56:38;17.80;99.90
3360;DHT22;1693;49.602;11.046;2022-09-09T06:59:10;18.10;99.90
3360;DHT22;1693;49.602;11.046;2022-09-09T07:01:40;18.20;99.90
3360;DHT22;1693;49.602;11.046;2022-09-09T07:04:09;18.60;99.90
3360;DHT22;1693;49.602;11.046;2022-09-09T07:06:40;18.80;99.90
3360;DHT22;1693;49.602;11.046;2022-09-09T07:09:10;19.00;99.90
3360;DHT22;1693;49.602;11.046;2022-09-09T07:11:44;18.80;99.90
3360;DHT22;1693;49.602;11.046;2022-09-09T07:14:14;18.90;99.90
3360;DHT22;1693;49.602;11.046;2022-09-09T07:16:44;18.80;99.90
3360;DHT22;1693;49.602;11.046;2022-09-09T07:19:13;18.70;99.90
3360;DHT22;1693;49.602;11.046;2022-09-09T07:21:44;18.60;99.90
3360;DHT22;1693;49.602;11.046;2022-09-09T07:24:13;18.60;99.90
3360;DHT22;1693;49.602;11.046;2022-09-09T07:26:41;18.70;99.90
3360;DHT22;1693;49.602;11.046;2022-09-09T07:29:11;18.70;99.90
3360;DHT22;1693;49.602;11.046;2022-09-09T07:31:39;18.60;99.90
3360;DHT22;1693;49.602;11.046;2022-09-09T07:34:07;18.60;99.90
3360;DHT22;1693;49.602;11.046;2022-09-09T07:36:38;18.50;99.90
3360;DHT22;1693;49.602;11.046;2022-09-09T07:39:10;18.50;99.90
3360;DHT22;1693;49.602;11.046;2022-09-09T07:41:40;18.60;99.90
3360;DHT22;1693;49.602;11.046;2022-09-09T07:44:09;18.70;99.90
3360;DHT22;1693;49.602;11.046;2022-09-09T07:46:41;18.90;99.90
3360;DHT22;1693;49.602;11.046;2022-09-09T07:49:10;18.90;99.90
3360;DHT22;1693;49.602;11.046;2022-09-09T07:51:39;19.10;99.90
3360;DHT22;1693;49.602;11.046;2022-09-09T07:54:12;19.40;99.90
3360;DHT22;1693;49.602;11.046;2022-09-09T07:56:40;19.80;99.90
3360;DHT22;1693;49.602;11.046;2022-09-09T07:59:09;20.30;99.90
3360;DHT22;1693;49.602;11.046;2022-09-09T08:01:39;20.70;99.90
3360;DHT22;1693;49.602;11.046;2022-09-09T08:04:09;21.00;99.90
3360;DHT22;1693;49.602;11.046;2022-09-09T08:06:53;21.10;99.90
3360;DHT22;1693;49.602;11.046;2022-09-09T08:09:24;21.00;99.90
3360;DHT22;1693;49.602;11.046;2022-09-09T08:11:56;20.90;99.90
3360;DHT22;1693;49.602;11.046;2022-09-09T08:14:25;20.70;99.90
3360;DHT22;1693;49.602;11.046;2022-09-09T08:16:53;20.30;99.90
3360;DHT22;1693;49.602;11.046;2022-09-09T08:19:22;20.40;99.90
3360;DHT22;1693;49.602;11.046;2022-09-09T08:21:49;20.80;99.90
3360;DHT22;1693;49.602;11.046;2022-09-09T08:24:16;21.00;99.90
3360;DHT22;1693;49.602;11.046;2022-09-09T08:26:51;20.90;99.90
3360;DHT22;1693;49.602;11.046;2022-09-09T08:29:20;20.60;99.90
3360;DHT22;1693;49.602;11.046;2022-09-09T08:31:50;20.50;99.90
3360;DHT22;1693;49.602;11.046;2022-09-09T08:34:19;20.40;99.90
3360;DHT22;1693;49.602;11.046;2022-09-09T08:36:50;20.30;99.90
3360;DHT22;1693;49.602;11.046;2022-09-09T08:39:20;20.40;99.90
3360;DHT22;1693;49.602;11.046;2022-09-09T08:42:28;20.30;99.90
3360;DHT22;1693;49.602;11.046;2022-09-09T08:45:33;20.30;99.90
3360;DHT22;1693;49.602;11.046;2022-09-09T08:48:19;20.30;99.90
3360;DHT22;1693;49.602;11.046;2022-09-09T08:50:52;20.40;99.90
3360;DHT22;1693;49.602;11.046;2022-09-09T08:53:33;20.40;99.90
3360;DHT22;1693;49.602;11.046;2022-09-09T08:56:09;20.50;99.90
3360;DHT22;1693;49.602;11.046;2022-09-09T08:58:43;20.50;99.90
3360;DHT22;1693;49.602;11.046;2022-09-09T09:01:31;20.50;99.90
3360;DHT22;1693;49.602;11.046;2022-09-09T09:04:10;20.50;99.90
3360;DHT22;1693;49.602;11.046;2022-09-09T09:06:49;20.70;99.90
3360;DHT22;1693;49.602;11.046;2022-09-09T09:09:23;20.90;99.90
3360;DHT22;1693;49.602;11.046;2022-09-09T09:11:55;21.00;99.90
3360;DHT22;1693;49.602;11.046;2022-09-09T09:14:31;21.10;99.90
3360;DHT22;1693;49.602;11.046;2022-09-09T09:17:04;21.10;99.90
3360;DHT22;1693;49.602;11.046;2022-09-09T09:19:34;21.50;99.90
3360;DHT22;1693;49.602;11.046;2022-09-09T09:22:06;21.60;99.90
3360;DHT22;1693;49.602;11.046;2022-09-09T09:24:44;21.50;99.90
3360;DHT22;1693;49.602;11.046;2022-09-09T09:27:16;21.70;99.90
3360;DHT22;1693;49.602;11.046;2022-09-09T09:29:54;22.00;99.90
3360;DHT22;1693;49.602;11.046;2022-09-09T09:32:26;22.30;99.90
3360;DHT22;1693;49.602;11.046;2022-09-09T09:34:58;22.60;99.90
3360;DHT22;1693;49.602;11.046;2022-09-09T09:37:33;22.80;99.90
3360;DHT22;1693;49.602;11.046;2022-09-09T09:40:13;22.80;99.90
3360;DHT22;1693;49.602;11.046;2022-09-09T09:42:49;22.70;99.90
3360;DHT22;1693;49.602;11.046;2022-09-09T09:45:27;22.40;99.90
3360;DHT22;1693;49.602;11.046;2022-09-09T09:47:59;22.10;99.90
3360;DHT22;1693;49.602;11.046;2022-09-09T09:50:27;22.00;99.90
3360;DHT22;1693;49.602;11.046;2022-09-09T09:52:57;22.00;99.90
3360;DHT22;1693;49.602;11.046;2022-09-09T09:55:26;22.20;99.90
3360;DHT22;1693;49.602;11.046;2022-09-09T09:58:02;22.30;99.90
3360;DHT22;1693;49.602;11.046;2022-09-09T10:00:34;22.30;99.90
3360;DHT22;1693;49.602;11.046;2022-09-09T10:03:01;22.70;99.90
3360;DHT22;1693;49.602;11.046;2022-09-09T10:05:30;22.90;99.90
3360;DHT22;1693;49.602;11.046;2022-09-09T10:08:03;22.90;99.90
3360;DHT22;1693;49.602;11.046;2022-09-09T10:10:47;22.90;99.90
3360;DHT22;1693;49.602;11.046;2022-09-09T10:13:23;23.20;99.90
3360;DHT22;1693;49.602;11.046;2022-09-09T10:16:02;23.70;99.90
3360;DHT22;1693;49.602;11.046;2022-09-09T10:19:05;24.00;99.90
3360;DHT22;1693;49.602;11.046;2022-09-09T10:21:56;23.90;99.90
3360;DHT22;1693;49.602;11.046;2022-09-09T10:27:47;23.70;99.90
3360;DHT22;1693;49.602;11.046;2022-09-09T10:30:23;23.50;99.90
3360;DHT22;1693;49.602;11.046;2022-09-09T10:33:01;23.40;99.90
3360;DHT22;1693;49.602;11.046;2022-09-09T10:35:35;23.60;99.90
3360;DHT22;1693;49.602;11.046;2022-09-09T10:40:50;24.70;99.90
3360;DHT22;1693;49.602;11.046;2022-09-09T10:46:13;27.30;95.90
3360;DHT22;1693;49.602;11.046;2022-09-09T10:48:58;27.50;95.40
3360;DHT22;1693;49.602;11.046;2022-09-09T10:51:36;28.00;93.50
3360;DHT22;1693;49.602;11.046;2022-09-09T10:54:24;27.70;93.10
3360;DHT22;1693;49.602;11.046;2022-09-09T10:56:56;26.80;93.30
3360;DHT22;1693;49.602;11.046;2022-09-09T10:59:27;26.20;94.40
3360;DHT22;1693;49.602;11.046;2022-09-09T11:01:58;25.60;95.30
3360;DHT22;1693;49.602;11.046;2022-09-09T11:04:31;24.90;96.00
3360;DHT22;1693;49.602;11.046;2022-09-09T11:07:05;24.40;95.90
3360;DHT22;1693;49.602;11.046;2022-09-09T11:09:38;23.90;96.50
3360;DHT22;1693;49.602;11.046;2022-09-09T11:12:15;23.90;97.70
3360;DHT22;1693;49.602;11.046;2022-09-09T11:14:50;25.30;96.70
3360;DHT22;1693;49.602;11.046;2022-09-09T11:17:23;28.10;92.10
3360;DHT22;1693;49.602;11.046;2022-09-09T11:19:52;28.00;92.40
3360;DHT22;1693;49.602;11.046;2022-09-09T11:22:27;30.90;85.10
3360;DHT22;1693;49.602;11.046;2022-09-09T11:24:59;30.80;85.70
3360;DHT22;1693;49.602;11.046;2022-09-09T11:27:32;32.20;77.30
3360;DHT22;1693;49.602;11.046;2022-09-09T11:30:17;31.60;72.90
3360;DHT22;1693;49.602;11.046;2022-09-09T11:35:58;32.20;69.90
3360;DHT22;1693;49.602;11.046;2022-09-09T11:38:28;31.40;67.40
3360;DHT22;1693;49.602;11.046;2022-09-09T11:41:04;30.50;67.80
3360;DHT22;1693;49.602;11.046;2022-09-09T11:43:38;30.40;66.10
3360;DHT22;1693;49.602;11.046;2022-09-09T11:46:06;30.60;66.10
3360;DHT22;1693;49.602;11.046;2022-09-09T11:48:37;30.70;66.00
3360;DHT22;1693;49.602;11.046;2022-09-09T11:51:09;30.20;65.00
3360;DHT22;1693;49.602;11.046;2022-09-09T11:53:48;30.70;62.90
3360;DHT22;1693;49.602;11.046;2022-09-09T11:56:27;31.40;64.50
3360;DHT22;1693;49.602;11.046;2022-09-09T11:59:04;31.80;60.10
3360;DHT22;1693;49.602;11.046;2022-09-09T12:01:36;31.10;59.90
3360;DHT22;1693;49.602;11.046;2022-09-09T12:04:27;29.60;62.40
3360;DHT22;1693;49.602;11.046;2022-09-09T12:06:59;28.70;64.70
3360;DHT22;1693;49.602;11.046;2022-09-09T12:09:46;27.40;65.20
3360;DHT22;1693;49.602;11.046;2022-09-09T12:12:25;27.70;65.00
3360;DHT22;1693;49.602;11.046;2022-09-09T12:15:21;29.30;65.00
3360;DHT22;1693;49.602;11.046;2022-09-09T12:17:56;30.60;63.60
3360;DHT22;1693;49.602;11.046;2022-09-09T12:20:34;30.60;58.30
3360;DHT22;1693;49.602;11.046;2022-09-09T12:23:24;29.40;59.10
3360;DHT22;1693;49.602;11.046;2022-09-09T12:26:12;28.80;60.80
3360;DHT22;1693;49.602;11.046;2022-09-09T12:28:51;28.30;63.60
3360;DHT22;1693;49.602;11.046;2022-09-09T12:31:24;27.80;62.60
3360;DHT22;1693;49.602;11.046;2022-09-09T12:33:52;27.50;62.00
3360;DHT22;1693;49.602;11.046;2022-09-09T12:36:21;28.70;63.50
3360;DHT22;1693;49.602;11.046;2022-09-09T12:38:50;30.60;60.90
3360;DHT22;1693;49.602;11.046;2022-09-09T12:41:20;31.50;57.60
3360;DHT22;1693;49.602;11.046;2022-09-09T12:43:48;31.50;55.70
3360;DHT22;1693;49.602;11.046;2022-09-09T12:46:23;29.90;55.30
3360;DHT22;1693;49.602;11.046;2022-09-09T12:48:54;27.90;57.20
3360;DHT22;1693;49.602;11.046;2022-09-09T12:51:25;25.70;64.60
3360;DHT22;1693;49.602;11.046;2022-09-09T12:53:54;24.60;70.40
3360;DHT22;1693;49.602;11.046;2022-09-09T12:56:24;23.30;75.20
3360;DHT22;1693;49.602;11.046;2022-09-09T12:58:53;22.60;80.20
3360;DHT22;1693;49.602;11.046;2022-09-09T13:01:23;22.10;83.90
3360;DHT22;1693;49.602;11.046;2022-09-09T13:03:50;21.10;89.50
3360;DHT22;1693;49.602;11.046;2022-09-09T13:06:21;20.20;94.80
3360;DHT22;1693;49.602;11.046;2022-09-09T13:08:50;19.30;99.90
3360;DHT22;1693;49.602;11.046;2022-09-09T13:11:24;18.40;99.90
3360;DHT22;1693;49.602;11.046;2022-09-09T13:13:56;17.40;99.90
3360;DHT22;1693;49.602;11.046;2022-09-09T13:16:26;16.90;99.90
3360;DHT22;1693;49.602;11.046;2022-09-09T13:18:57;16.40;99.90
3360;DHT22;1693;49.602;11.046;2022-09-09T13:21:33;16.20;99.90
3360;DHT22;1693;49.602;11.046;2022-09-09T13:24:00;16.00;99.90
3360;DHT22;1693;49.602;11.046;2022-09-09T13:26:31;16.00;99.90
3360;DHT22;1693;49.602;11.046;2022-09-09T13:29:14;16.00;99.90
3360;DHT22;1693;49.602;11.046;2022-09-09T13:31:44;16.10;99.90
3360;DHT22;1693;49.602;11.046;2022-09-09T13:34:12;16.20;99.90
3360;DHT22;1693;49.602;11.046;2022-09-09T13:36:40;16.80;99.90
3360;DHT22;1693;49.602;11.046;2022-09-09T13:39:15;18.20;99.90
3360;DHT22;1693;49.602;11.046;2022-09-09T13:41:47;19.00;99.90
3360;DHT22;1693;49.602;11.046;2022-09-09T13:44:19;19.00;99.90
3360;DHT22;1693;49.602;11.046;2022-09-09T13:46:59;19.70;99.90
3360;DHT22;1693;49.602;11.046;2022-09-09T13:49:29;20.00;99.90
3360;DHT22;1693;49.602;11.046;2022-09-09T13:52:04;20.70;99.90
3360;DHT22;1693;49.602;11.046;2022-09-09T13:54:33;21.00;99.90
3360;DHT22;1693;49.602;11.046;2022-09-09T13:57:02;21.00;99.90
3360;DHT22;1693;49.602;11.046;2022-09-09T13:59:30;21.20;99.90
3360;DHT22;1693;49.602;11.046;2022-09-09T14:01:57;21.50;99.90
3360;DHT22;1693;49.602;11.046;2022-09-09T14:04:25;21.70;99.90
3360;DHT22;1693;49.602;11.046;2022-09-09T14:06:52;21.50;99.90
3360;DHT22;1693;49.602;11.046;2022-09-09T14:09:20;21.80;99.90
3360;DHT22;1693;49.602;11.046;2022-09-09T14:11:47;21.50;99.90
3360;DHT22;1693;49.602;11.046;2022-09-09T14:14:15;21.50;99.90
3360;DHT22;1693;49.602;11.046;2022-09-09T14:16:43;21.40;99.90
3360;DHT22;1693;49.602;11.046;2022-09-09T14:19:10;21.30;99.90
3360;DHT22;1693;49.602;11.046;2022-09-09T14:21:37;21.40;99.90
3360;DHT22;1693;49.602;11.046;2022-09-09T14:24:05;21.80;99.90
3360;DHT22;1693;49.602;11.046;2022-09-09T14:26:32;22.30;99.90
3360;DHT22;1693;49.602;11.046;2022-09-09T14:28:59;22.10;99.90
3360;DHT22;1693;49.602;11.046;2022-09-09T14:31:28;22.30;99.90
3360;DHT22;1693;49.602;11.046;2022-09-09T14:33:55;22.40;99.90
3360;DHT22;1693;49.602;11.046;2022-09-09T14:36:22;23.10;99.90
3360;DHT22;1693;49.602;11.046;2022-09-09T14:38:50;23.10;99.90
3360;DHT22;1693;49.602;11.046;2022-09-09T14:41:19;23.90;99.90
3360;DHT22;1693;49.602;11.046;2022-09-09T14:43:48;23.70;99.90
3360;DHT22;1693;49.602;11.046;2022-09-09T14:46:16;23.20;99.90
3360;DHT22;1693;49.602;11.046;2022-09-09T14:48:45;23.00;99.90
3360;DHT22;1693;49.602;11.046;2022-09-09T14:51:15;22.70;99.90
3360;DHT22;1693;49.602;11.046;2022-09-09T14:53:43;22.40;99.90
3360;DHT22;1693;49.602;11.046;2022-09-09T14:56:12;22.30;99.90
3360;DHT22;1693;49.602;11.046;2022-09-09T14:58:39;22.10;99.90
3360;DHT22;1693;49.602;11.046;2022-09-09T15:01:07;22.40;99.90
3360;DHT22;1693;49.602;11.046;2022-09-09T15:03:36;22.30;99.90
3360;DHT22;1693;49.602;11.046;2022-09-09T15:06:10;22.20;99.90
3360;DHT22;1693;49.602;11.046;2022-09-09T15:08:38;21.90;99.90
3360;DHT22;1693;49.602;11.046;2022-09-09T15:11:07;21.60;99.90
3360;DHT22;1693;49.602;11.046;2022-09-09T15:13:34;21.10;99.90
3360;DHT22;1693;49.602;11.046;2022-09-09T15:16:06;20.90;99.90
3360;DHT22;1693;49.602;11.046;2022-09-09T15:18:34;20.60;99.90
3360;DHT22;1693;49.602;11.046;2022-09-09T15:21:05;20.60;99.90
3360;DHT22;1693;49.602;11.046;2022-09-09T15:27:05;20.80;99.90
3360;DHT22;1693;49.602;11.046;2022-09-09T15:29:32;21.30;99.90
3360;DHT22;1693;49.602;11.046;2022-09-09T15:31:59;21.50;99.90
3360;DHT22;1693;49.602;11.046;2022-09-09T15:34:26;21.60;99.90
3360;DHT22;1693;49.602;11.046;2022-09-09T15:36:53;21.50;99.90
3360;DHT22;1693;49.602;11.046;2022-09-09T15:39:21;21.30;99.90
3360;DHT22;1693;49.602;11.046;2022-09-09T15:41:48;21.10;99.90
3360;DHT22;1693;49.602;11.046;2022-09-09T15:44:16;21.10;99.90
3360;DHT22;1693;49.602;11.046;2022-09-09T15:46:46;21.00;99.90
3360;DHT22;1693;49.602;11.046;2022-09-09T15:49:14;21.00;99.90
3360;DHT22;1693;49.602;11.046;2022-09-09T15:51:44;20.90;99.90
3360;DHT22;1693;49.602;11.046;2022-09-09T15:54:13;21.70;99.90
3360;DHT22;1693;49.602;11.046;2022-09-09T15:56:41;22.20;99.90
3360;DHT22;1693;49.602;11.046;2022-09-09T16:01:38;24.40;99.90
3360;DHT22;1693;49.602;11.046;2022-09-09T16:04:06;26.50;99.90
3360;DHT22;1693;49.602;11.046;2022-09-09T16:06:33;28.50;99.90
3360;DHT22;1693;49.602;11.046;2022-09-09T16:09:03;30.50;99.90
3360;DHT22;1693;49.602;11.046;2022-09-09T16:11:32;31.80;99.90
3360;DHT22;1693;49.602;11.046;2022-09-09T16:13:59;32.10;98.00
3360;DHT22;1693;49.602;11.046;2022-09-09T16:16:29;33.40;91.40
3360;DHT22;1693;49.602;11.046;2022-09-09T16:18:58;33.50;91.70
3360;DHT22;1693;49.602;11.046;2022-09-09T16:21:28;32.50;83.70
3360;DHT22;1693;49.602;11.046;2022-09-09T16:23:57;32.00;85.70
3360;DHT22;1693;49.602;11.046;2022-09-09T16:26:25;32.50;75.60
3360;DHT22;1693;49.602;11.046;2022-09-09T16:28:54;32.80;76.50
3360;DHT22;1693;49.602;11.046;2022-09-09T16:31:22;33.00;77.50